Terminal Aerodrome Forecast
Issued by NWS Birmingham, AL

Home | Current Version | Previous Version | Text Only | Print | Product List | Glossary On
Versions: 1 2 3 4 5 6 7 8 9 10 11 12 13 14 15
000
FTUS44 KBMX 291132
TAFBHM
TAF
KBHM 291132Z 2912/3012 07003KT P6SM SCT080
     FM291600 16007KT P6SM BKN060
     FM292200 18008KT P6SM SCT040
     FM301000 20009KT 3SM TSRA BR OVC030CB=

USA.gov is the U.S. government's official web portal to all federal, state and local government web resources and services.